Time;durP1;ratioP1;P1;durP2;ratioP2;P2;SDS_P1;SDS_P2;PMS_P1;PMS_P2;Temp;Humidity;BMP_temperature;BMP_pressure;BME280_temperature;BME280_humidity;BME280_pressure;Samples;Min_cycle;Max_cycle;Signal;HPM_P1;HPM_P2
2022/07/28 00:00:23;;;;;;;1.38;0.60;;;;;;;14.57;59.54;100620.69;5096114;28;20036;-86
2022/07/28 00:02:48;;;;;;;3.60;0.85;;;;;;;14.57;59.82;100626.16;5096528;28;20067;-86
2022/07/28 00:05:14;;;;;;;2.20;0.55;;;;;;;14.62;59.70;100619.66;5095361;28;20455;-87
2022/07/28 00:07:39;;;;;;;3.45;1.13;;;;;;;14.52;59.85;100614.66;5096455;28;20486;-80
2022/07/28 00:10:05;;;;;;;1.40;0.35;;;;;;;14.41;60.05;100608.84;5096204;28;20078;-85
2022/07/28 00:12:31;;;;;;;3.25;0.65;;;;;;;14.37;60.55;100613.41;5096130;28;20100;-84
2022/07/28 00:14:56;;;;;;;2.10;0.68;;;;;;;14.40;60.37;100605.31;5095828;28;20036;-85
2022/07/28 00:17:22;;;;;;;2.58;1.00;;;;;;;14.41;60.37;100608.84;5096346;28;20379;-84
2022/07/28 00:19:47;;;;;;;1.58;0.80;;;;;;;14.34;60.84;100612.19;5094560;28;20059;-86
2022/07/28 00:22:12;;;;;;;1.65;0.60;;;;;;;14.37;60.82;100610.69;5095998;28;20040;-85
2022/07/28 00:24:38;;;;;;;2.25;0.57;;;;;;;14.35;60.84;100604.75;5095863;28;20028;-84
2022/07/28 00:27:05;;;;;;;2.73;0.70;;;;;;;14.31;60.82;100606.59;5096018;28;20062;-84
2022/07/28 00:29:31;;;;;;;2.05;0.73;;;;;;;14.28;61.21;100616.31;5095862;28;20262;-84
2022/07/28 00:31:56;;;;;;;0.85;0.47;;;;;;;14.24;61.14;100612.66;5095735;28;20035;-81
2022/07/28 00:34:21;;;;;;;2.13;0.77;;;;;;;14.30;60.93;100607.75;5095640;28;20039;-84
2022/07/28 00:36:47;;;;;;;1.17;0.50;;;;;;;14.20;61.51;100610.97;5095886;28;20047;-84
2022/07/28 00:39:12;;;;;;;2.88;0.50;;;;;;;14.25;61.35;100603.28;5095924;28;20035;-84
2022/07/28 00:41:37;;;;;;;0.63;0.40;;;;;;;14.20;61.41;100609.03;5095891;28;20028;-83
2022/07/28 00:44:05;;;;;;;8.93;0.73;;;;;;;14.28;61.17;100599.88;5095760;28;20254;-85
2022/07/28 00:46:30;;;;;;;1.55;0.60;;;;;;;14.25;61.39;100600.56;5095403;28;20428;-85
2022/07/28 00:48:55;;;;;;;1.33;0.50;;;;;;;14.28;61.33;100604.56;5095356;28;20039;-86
2022/07/28 00:51:23;;;;;;;2.63;1.03;;;;;;;14.24;61.58;100598.16;5094873;28;20289;-84
2022/07/28 00:53:48;;;;;;;1.40;0.52;;;;;;;14.10;61.95;100596.59;5095177;28;20379;-86
2022/07/28 00:56:14;;;;;;;1.60;0.60;;;;;;;14.12;61.96;100599.81;5095384;28;20028;-86
2022/07/28 00:58:40;;;;;;;2.05;0.70;;;;;;;14.05;62.09;100596.84;5095059;28;20043;-84
2022/07/28 01:01:07;;;;;;;;;;;;;;;14.01;62.13;100592.44;5095985;28;20039;-85
2022/07/28 01:03:34;;;;;;;1.88;0.85;;;;;;;13.89;62.75;100590.50;5094209;28;19961;-84
2022/07/28 01:06:06;;;;;;;1.58;0.47;;;;;;;13.91;62.94;100596.44;5095204;28;20026;-86
2022/07/28 01:09:02;;;;;;;2.55;0.90;;;;;;;13.95;62.70;100591.88;5094079;28;20122;-85
2022/07/28 01:11:41;;;;;;;1.95;0.60;;;;;;;13.88;63.02;100585.38;5095298;28;20028;-85
2022/07/28 01:14:20;;;;;;;1.02;0.55;;;;;;;13.89;63.03;100585.03;5093877;28;20039;-85
2022/07/28 01:16:58;;;;;;;0.95;0.50;;;;;;;13.88;63.08;100579.91;5095360;28;20089;-85
2022/07/28 01:19:43;;;;;;;2.53;0.65;;;;;;;13.94;62.85;100579.34;5094864;28;20052;-83
2022/07/28 01:22:11;;;;;;;3.90;0.90;;;;;;;13.93;62.92;100577.72;5095383;28;20063;-87
2022/07/28 01:24:48;;;;;;;3.78;1.15;;;;;;;13.94;62.87;100573.84;5095146;28;20024;-86
2022/07/28 01:27:28;;;;;;;1.67;0.63;;;;;;;13.79;63.49;100582.78;5095158;28;20071;-84
2022/07/28 01:30:03;;;;;;;1.98;0.60;;;;;;;13.74;63.71;100580.25;5094863;28;20043;-83
2022/07/28 01:32:37;;;;;;;2.45;0.60;;;;;;;13.79;63.44;100580.03;5094854;28;20063;-85
2022/07/28 01:35:11;;;;;;;2.83;0.88;;;;;;;13.79;63.47;100582.78;5094905;28;20344;-82
2022/07/28 01:37:46;;;;;;;2.83;0.60;;;;;;;13.73;63.64;100578.66;5094748;28;20040;-84
2022/07/28 01:40:16;;;;;;;1.75;0.60;;;;;;;13.69;63.60;100575.81;5094635;28;20502;-84
2022/07/28 01:42:51;;;;;;;2.30;0.75;;;;;;;13.67;64.04;100574.59;5093234;28;20115;-83
2022/07/28 01:45:19;;;;;;;1.73;0.70;;;;;;;13.76;63.59;100581.50;5094666;28;20042;-84
2022/07/28 01:47:46;;;;;;;1.52;0.55;;;;;;;13.78;63.87;100581.19;5093313;28;20032;-84
2022/07/28 01:50:14;;;;;;;1.48;0.65;;;;;;;13.73;63.65;100575.94;5094792;28;20057;-82
2022/07/28 01:52:41;;;;;;;1.85;0.70;;;;;;;13.70;64.02;100573.88;5094015;28;20032;-85
2022/07/28 01:55:09;;;;;;;2.10;0.68;;;;;;;13.69;64.13;100577.78;5094583;28;20052;-85
2022/07/28 01:57:36;;;;;;;2.78;0.90;;;;;;;13.62;64.13;100577.56;5094688;28;20111;-84
2022/07/28 02:00:04;;;;;;;3.38;0.93;;;;;;;13.58;64.38;100571.16;5094704;28;20558;-84
2022/07/28 02:02:32;;;;;;;1.65;0.60;;;;;;;13.57;64.64;100575.03;5094208;28;20032;-84
2022/07/28 02:04:59;;;;;;;2.80;0.98;;;;;;;13.50;64.80;100565.47;5096159;28;20031;-85
2022/07/28 02:07:26;;;;;;;3.22;0.70;;;;;;;13.46;65.00;100561.03;5096134;28;20028;-84
2022/07/28 02:09:53;;;;;;;2.08;0.80;;;;;;;13.42;65.43;100560.09;5096252;28;20060;-84
2022/07/28 02:12:20;;;;;;;2.53;0.80;;;;;;;13.36;65.49;100548.63;5096522;28;20028;-85
2022/07/28 02:14:49;;;;;;;2.15;0.70;;;;;;;13.39;65.42;100552.59;5096475;28;20069;-83
2022/07/28 02:17:17;;;;;;;2.58;0.80;;;;;;;13.34;65.67;100553.63;5098040;28;20032;-85
2022/07/28 02:19:46;;;;;;;2.05;0.73;;;;;;;13.35;65.66;100552.50;5096036;28;20052;-83
2022/07/28 02:22:12;;;;;;;2.08;0.68;;;;;;;13.13;66.59;100553.72;5094374;28;20077;-84
2022/07/28 02:24:40;;;;;;;2.05;0.50;;;;;;;13.19;66.58;100559.78;5093318;28;20034;-85
2022/07/28 02:27:21;;;;;;;2.17;0.88;;;;;;;13.18;66.44;100548.03;5094445;28;20036;-84
2022/07/28 02:29:49;;;;;;;1.85;0.80;;;;;;;13.08;67.06;100544.91;5092838;28;20114;-86
2022/07/28 02:32:32;;;;;;;1.65;0.73;;;;;;;13.01;67.13;100548.22;5095090;28;20020;-87
2022/07/28 02:35:05;;;;;;;2.40;0.77;;;;;;;12.98;67.48;100543.44;5093663;28;20123;-86
2022/07/28 02:37:37;;;;;;;2.08;0.93;;;;;;;12.99;67.66;100544.25;5094398;28;20114;-86
2022/07/28 02:40:03;;;;;;;3.40;1.08;;;;;;;12.99;67.61;100544.25;5094874;28;20038;-87
2022/07/28 02:42:34;;;;;;;2.15;0.70;;;;;;;13.03;67.43;100542.41;5094796;28;20459;-88
2022/07/28 02:45:02;;;;;;;2.10;0.77;;;;;;;13.06;67.16;100537.06;5095250;28;20024;-87
2022/07/28 02:47:33;;;;;;;1.38;0.68;;;;;;;13.17;66.91;100534.69;5095320;28;20028;-85
2022/07/28 02:50:01;;;;;;;1.95;0.77;;;;;;;13.08;67.29;100523.06;5094819;28;20039;-87
2022/07/28 02:52:27;;;;;;;2.03;0.70;;;;;;;13.19;66.98;100526.97;5094304;28;20028;-86
2022/07/28 02:54:53;;;;;;;;;;;;;;;13.22;67.06;100523.53;5094737;28;20035;-85
2022/07/28 02:57:20;;;;;;;2.03;0.80;;;;;;;13.09;67.64;100530.13;5095057;28;20003;-87
2022/07/28 02:59:48;;;;;;;1.42;0.70;;;;;;;13.15;67.34;100528.78;5093598;28;20082;-86
2022/07/28 03:02:17;;;;;;;1.50;0.60;;;;;;;13.11;67.39;100527.88;5094251;28;20035;-86
2022/07/28 03:04:59;;;;;;;5.00;1.10;;;;;;;13.08;67.51;100526.59;5093428;28;20035;-85
2022/07/28 03:07:26;;;;;;;5.15;1.10;;;;;;;13.04;67.92;100528.41;5094247;28;20050;-86
2022/07/28 03:09:53;;;;;;;2.17;0.80;;;;;;;13.06;67.64;100528.06;5094372;28;20024;-86
2022/07/28 03:12:18;;;;;;;;;;;;;;;13.02;68.00;100540.84;5092865;28;20135;-86
2022/07/28 03:14:43;;;;;;;10.63;1.07;;;;;;;12.97;67.98;100541.06;5094527;28;19947;-86
2022/07/28 03:17:09;;;;;;;2.97;0.93;;;;;;;12.97;68.23;100547.31;5094433;28;20040;-87
2022/07/28 03:19:34;;;;;;;2.03;0.70;;;;;;;12.83;68.72;100541.38;5093724;28;20551;-87
2022/07/28 03:22:00;;;;;;;1.23;0.60;;;;;;;12.81;68.82;100532.72;5094641;28;20375;-86
2022/07/28 03:24:34;;;;;;;4.75;0.90;;;;;;;12.83;68.62;100530.44;5093161;28;20085;-87
2022/07/28 03:27:08;;;;;;;2.60;1.10;;;;;;;12.76;69.20;100541.91;5093624;28;20064;-86
2022/07/28 03:29:35;;;;;;;3.95;1.00;;;;;;;12.73;69.35;100534.41;5093774;28;20093;-87
2022/07/28 03:32:00;;;;;;;2.50;0.77;;;;;;;12.73;69.27;100539.88;5092864;28;20028;-86
2022/07/28 03:34:26;;;;;;;2.08;0.93;;;;;;;12.73;69.41;100539.88;5094608;28;20444;-88
2022/07/28 03:37:00;;;;;;;2.60;0.80;;;;;;;12.69;69.59;100541.69;5093554;28;20463;-85
2022/07/28 03:39:28;;;;;;;4.07;1.13;;;;;;;12.72;69.63;100551.94;5093865;28;20024;-85
2022/07/28 03:41:57;;;;;;;4.20;1.20;;;;;;;12.69;69.78;100549.88;5096599;28;20108;-87
2022/07/28 03:44:24;;;;;;;2.45;0.85;;;;;;;12.80;69.45;100545.59;5100801;28;20088;-88
2022/07/28 03:46:50;;;;;;;2.35;0.80;;;;;;;12.74;69.57;100549.66;5099210;28;20024;-87
2022/07/28 03:49:15;;;;;;;4.20;1.17;;;;;;;12.73;69.73;100548.06;5094287;28;20038;-88
2022/07/28 03:51:40;;;;;;;3.03;1.13;;;;;;;12.73;69.61;100550.81;5096362;28;20126;-85
2022/07/28 03:54:06;;;;;;;2.73;0.83;;;;;;;12.70;69.70;100548.75;5094964;28;20346;-86
2022/07/28 03:56:31;;;;;;;5.20;1.57;;;;;;;12.65;69.83;100540.78;5109507;28;20070;-87
2022/07/28 03:58:56;;;;;;;1.87;0.80;;;;;;;12.67;69.94;100541.22;5115116;28;20297;-88
2022/07/28 04:01:22;;;;;;;2.97;1.20;;;;;;;12.69;70.10;100546.34;5109621;28;20036;-87
2022/07/28 04:03:47;;;;;;;3.63;0.80;;;;;;;12.67;70.16;100538.50;5095292;28;20027;-86
2022/07/28 04:06:13;;;;;;;3.37;0.77;;;;;;;12.58;70.50;100537.78;5094456;28;20565;-86
2022/07/28 04:08:39;;;;;;;1.60;0.70;;;;;;;12.57;70.49;100536.97;5095600;28;20302;-89
2022/07/28 04:11:04;;;;;;;1.52;0.80;;;;;;;12.59;70.43;100533.91;5093154;28;20032;-87
2022/07/28 04:13:35;;;;;;;2.17;0.97;;;;;;;12.53;70.77;100532.53;5093822;28;20032;-88
2022/07/28 04:16:01;;;;;;;3.08;1.08;;;;;;;12.48;71.51;100528.09;5092106;28;20278;-87
2022/07/28 04:18:26;;;;;;;2.78;0.82;;;;;;;12.50;71.12;100534.03;5093578;28;20050;-88
2022/07/28 04:20:51;;;;;;;2.90;0.90;;;;;;;12.53;71.13;100529.81;5092801;28;20033;-86
2022/07/28 04:23:18;;;;;;;6.40;1.05;;;;;;;12.56;71.00;100529.94;5092678;28;20107;-87
2022/07/28 04:25:44;;;;;;;2.22;0.90;;;;;;;12.56;71.09;100527.19;5095359;28;20036;-87
2022/07/28 04:28:10;;;;;;;2.47;0.77;;;;;;;12.54;71.24;100531.41;5101632;28;20490;-86
2022/07/28 04:30:35;;;;;;;3.03;0.90;;;;;;;12.54;71.36;100534.13;5106808;28;20032;-86
2022/07/28 04:33:00;;;;;;;6.43;0.90;;;;;;;12.62;71.13;100530.53;5100170;28;20620;-87
2022/07/28 04:35:27;;;;;;;2.73;0.93;;;;;;;12.69;70.71;100533.50;5100181;28;20032;-87
2022/07/28 04:37:57;;;;;;;2.72;1.20;;;;;;;12.60;71.25;100533.59;5104108;28;20032;-88
2022/07/28 04:40:24;;;;;;;2.05;0.70;;;;;;;12.59;71.17;100537.44;5101604;28;20051;-88
2022/07/28 04:42:49;;;;;;;3.05;1.00;;;;;;;12.71;71.04;100539.41;5103425;28;20036;-88
2022/07/28 04:45:15;;;;;;;3.33;0.90;;;;;;;12.78;70.73;100541.59;5100723;28;20024;-87
2022/07/28 04:47:41;;;;;;;3.30;1.00;;;;;;;12.87;70.44;100534.88;5100451;28;20025;-88
2022/07/28 04:50:08;;;;;;;2.15;1.10;;;;;;;12.80;70.51;100542.88;5096997;28;20033;-87
2022/07/28 04:52:34;;;;;;;4.15;1.17;;;;;;;12.80;70.49;100542.06;5097865;28;20032;-87
2022/07/28 04:55:00;;;;;;;3.33;1.10;;;;;;;12.82;70.69;100542.53;5095883;28;20047;-85
2022/07/28 04:57:28;;;;;;;3.27;0.97;;;;;;;12.72;70.85;100548.41;5095952;28;20534;-87
2022/07/28 05:00:01;;;;;;;2.42;0.77;;;;;;;12.65;71.23;100546.25;5096093;28;20114;-86
2022/07/28 05:02:27;;;;;;;5.32;1.17;;;;;;;12.70;71.20;100547.94;5096179;28;20470;-85
2022/07/28 05:04:52;;;;;;;6.97;1.75;;;;;;;12.69;71.08;100547.16;5097881;28;20035;-85
2022/07/28 05:07:18;;;;;;;5.57;0.80;;;;;;;12.64;71.29;100550.91;5094883;28;20143;-86
2022/07/28 05:09:43;;;;;;;3.75;0.80;;;;;;;12.70;71.17;100548.75;5096072;28;20040;-84
2022/07/28 05:12:09;;;;;;;4.50;1.00;;;;;;;12.79;71.05;100541.25;5094146;28;20425;-86
2022/07/28 05:14:34;;;;;;;5.28;1.25;;;;;;;12.96;70.59;100540.25;5096214;28;20675;-89
2022/07/28 05:17:00;;;;;;;2.00;0.90;;;;;;;12.84;70.81;100537.50;5095785;28;20036;-87
2022/07/28 05:19:25;;;;;;;2.08;0.90;;;;;;;12.98;70.39;100529.00;5094300;28;20062;-87
2022/07/28 05:21:50;;;;;;;3.80;1.20;;;;;;;13.10;70.09;100535.28;5095966;28;20098;-87
2022/07/28 05:24:16;;;;;;;6.50;1.20;;;;;;;13.16;69.66;100535.84;5096254;28;20081;-88
2022/07/28 05:26:41;;;;;;;2.03;0.93;;;;;;;13.22;69.59;100537.22;5095708;28;20432;-86
2022/07/28 05:29:07;;;;;;;3.07;0.80;;;;;;;13.21;69.54;100541.88;5095019;28;20266;-86
2022/07/28 05:31:32;;;;;;;3.40;1.38;;;;;;;13.19;69.46;100535.97;5095729;28;20349;-87
2022/07/28 05:33:57;;;;;;;2.20;0.77;;;;;;;13.28;69.58;100535.88;5095521;28;20032;-84
2022/07/28 05:36:23;;;;;;;4.28;1.33;;;;;;;13.24;69.53;100538.47;5095010;28;20035;-83
2022/07/28 05:38:48;;;;;;;2.45;1.13;;;;;;;13.18;69.74;100533.56;5095374;28;20455;-86
2022/07/28 05:41:14;;;;;;;1.88;0.80;;;;;;;13.30;69.47;100539.06;5095326;28;20046;-88
2022/07/28 05:43:39;;;;;;;6.53;2.15;;;;;;;13.44;69.19;100525.81;5095474;28;20032;-85
2022/07/28 05:46:05;;;;;;;2.20;0.82;;;;;;;13.47;68.95;100536.06;5096262;28;20414;-86
2022/07/28 05:48:31;;;;;;;4.80;1.00;;;;;;;13.49;68.78;100525.59;5095993;28;20399;-85
2022/07/28 05:50:56;;;;;;;2.88;1.02;;;;;;;13.46;68.84;100528.22;5095472;28;20421;-88
2022/07/28 05:53:22;;;;;;;3.20;0.85;;;;;;;13.49;68.88;100533.78;5094314;28;20067;-85
2022/07/28 05:55:48;;;;;;;4.53;1.33;;;;;;;13.50;68.97;100527.19;5094562;28;20032;-87
2022/07/28 05:58:13;;;;;;;2.78;0.80;;;;;;;13.74;68.33;100517.31;5094199;28;20040;-86
2022/07/28 06:00:39;;;;;;;5.03;1.70;;;;;;;13.86;67.92;100522.75;5093113;28;20036;-87
2022/07/28 06:03:04;;;;;;;3.83;0.80;;;;;;;14.02;67.11;100523.63;5094111;28;20024;-86
2022/07/28 06:05:30;;;;;;;3.55;0.88;;;;;;;14.02;67.35;100522.84;5093092;28;20036;-87
2022/07/28 06:07:57;;;;;;;2.97;0.98;;;;;;;14.20;66.88;100531.53;5094005;28;20032;-85
2022/07/28 06:10:24;;;;;;;6.47;0.80;;;;;;;14.15;66.84;100530.66;5094018;28;20102;-84
2022/07/28 06:12:54;;;;;;;5.53;1.17;;;;;;;14.27;66.47;100523.50;5093877;28;20055;-86
2022/07/28 06:15:25;;;;;;;3.80;0.90;;;;;;;14.40;66.17;100523.13;5094084;28;20032;-86
2022/07/28 06:17:54;;;;;;;4.38;0.90;;;;;;;14.53;65.66;100523.88;5094185;28;20165;-89
2022/07/28 06:20:22;;;;;;;1.73;0.80;;;;;;;14.54;65.41;100524.69;5092828;28;20031;-85
2022/07/28 06:22:52;;;;;;;5.95;1.10;;;;;;;14.67;64.54;100521.53;5093925;28;20024;-80
2022/07/28 06:25:21;;;;;;;3.13;1.02;;;;;;;14.78;64.26;100524.53;5093921;28;20034;-79
2022/07/28 06:27:52;;;;;;;2.85;0.80;;;;;;;14.82;64.37;100524.63;5092329;28;20427;-80
2022/07/28 06:30:18;;;;;;;2.05;0.90;;;;;;;15.15;63.60;100522.31;5093315;28;20032;-81
2022/07/28 06:32:44;;;;;;;3.95;0.90;;;;;;;15.38;62.58;100518.91;5092151;28;20058;-81
2022/07/28 06:35:13;;;;;;;;;;;;;;;15.80;61.24;100519.09;5093642;28;20044;-79
2022/07/28 06:37:38;;;;;;;1.83;0.90;;;;;;;15.85;60.83;100522.34;5093520;28;20393;-80
2022/07/28 06:40:06;;;;;;;2.65;1.05;;;;;;;15.89;59.97;100525.16;5092955;28;20028;-80
2022/07/28 06:42:31;;;;;;;2.20;0.85;;;;;;;16.02;60.28;100526.63;5091750;28;20032;-81
2022/07/28 06:44:56;;;;;;;4.00;0.90;;;;;;;16.68;58.18;100536.56;5093440;28;20042;-80
2022/07/28 06:47:22;;;;;;;3.85;1.48;;;;;;;16.02;59.33;100526.63;5091992;28;20036;-80
2022/07/28 06:49:47;;;;;;;2.67;0.77;;;;;;;16.21;59.29;100528.56;5092164;28;20085;-80
2022/07/28 06:52:12;;;;;;;1.77;0.70;;;;;;;16.14;59.44;100523.75;5092630;28;20733;-81
2022/07/28 06:54:38;;;;;;;3.53;0.73;;;;;;;15.99;59.69;100523.81;5092894;28;20388;-81
2022/07/28 06:57:03;;;;;;;;;;;;;;;16.34;58.86;100532.75;5092984;28;20043;-81
2022/07/28 06:59:29;;;;;;;3.38;0.80;;;;;;;16.57;57.94;100529.25;5092542;28;20313;-82
2022/07/28 07:01:54;;;;;;;2.40;0.93;;;;;;;16.44;58.42;100531.34;5092784;28;20036;-83
2022/07/28 07:04:20;;;;;;;2.72;0.90;;;;;;;16.44;58.24;100531.34;5091502;28;20032;-81
2022/07/28 07:06:45;;;;;;;;;;;;;;;16.97;57.19;100526.88;5092053;28;20031;-81
2022/07/28 07:09:10;;;;;;;2.00;0.90;;;;;;;17.63;55.32;100519.19;5091434;28;19942;-81
2022/07/28 07:11:36;;;;;;;1.80;0.60;;;;;;;17.17;56.31;100522.06;5092911;28;20273;-82
2022/07/28 07:14:01;;;;;;;;;;;;;;;16.33;58.39;100528.44;5093420;28;20051;-80
2022/07/28 07:16:26;;;;;;;1.27;0.50;;;;;;;16.35;58.72;100531.59;5092855;28;19947;-82
2022/07/28 07:18:51;;;;;;;;;;;;;;;16.45;58.11;100528.25;5093141;28;20078;-80
2022/07/28 07:21:18;;;;;;;4.97;0.90;;;;;;;16.46;58.08;100529.88;5092749;28;19912;-82
2022/07/28 07:23:43;;;;;;;2.15;0.80;;;;;;;16.47;57.96;100523.22;5093034;28;20262;-84
2022/07/28 07:26:09;;;;;;;1.58;0.63;;;;;;;16.36;58.17;100524.94;5093022;28;20051;-84
2022/07/28 07:28:34;;;;;;;;;;;;;;;16.35;58.04;100515.13;5093291;28;20036;-80
2022/07/28 07:30:59;;;;;;;2.22;0.70;;;;;;;16.26;58.19;100520.03;5092779;28;20026;-77
2022/07/28 07:33:25;;;;;;;;;;;;;;;16.29;58.34;100513.81;5091819;28;20032;-83
2022/07/28 07:35:50;;;;;;;1.65;0.82;;;;;;;16.37;58.11;100515.53;5092383;28;19912;-79
2022/07/28 07:38:18;;;;;;;;;;;;;;;16.58;57.53;100508.84;5093048;28;20070;-80
2022/07/28 07:40:46;;;;;;;2.10;0.85;;;;;;;16.72;57.14;100512.66;5091463;28;20429;-82
2022/07/28 07:43:12;;;;;;;3.38;1.23;;;;;;;16.46;58.05;100507.88;5091217;28;20028;-80
2022/07/28 07:45:40;;;;;;;4.47;1.27;;;;;;;16.18;58.30;100508.13;5092297;28;20032;-80
2022/07/28 07:48:05;;;;;;;4.38;1.63;;;;;;;16.13;58.88;100510.38;5090928;28;20467;-80
2022/07/28 07:50:33;;;;;;;3.22;0.70;;;;;;;16.27;58.52;100507.09;5092546;28;20085;-79
2022/07/28 07:52:59;;;;;;;5.90;1.13;;;;;;;16.39;58.07;100510.47;5092534;28;20032;-82
2022/07/28 07:55:27;;;;;;;8.40;1.58;;;;;;;16.63;57.78;100503.03;5092749;28;20375;-80
2022/07/28 07:57:53;;;;;;;2.80;0.80;;;;;;;16.63;57.14;100497.53;5092413;28;20039;-80
2022/07/28 08:00:18;;;;;;;3.15;1.08;;;;;;;16.91;57.22;100500.00;5091760;28;20032;-81
2022/07/28 08:02:44;;;;;;;4.10;0.80;;;;;;;16.84;56.74;100498.75;5096012;28;20036;-80
2022/07/28 08:05:09;;;;;;;;;;;;;;;16.91;56.49;100495.31;5094980;28;20084;-79
2022/07/28 08:07:35;;;;;;;2.40;0.77;;;;;;;16.58;57.38;100504.13;5095800;28;19912;-81
2022/07/28 08:10:00;;;;;;;;;;;;;;;16.83;56.80;100505.41;5095857;28;20497;-79
2022/07/28 08:12:26;;;;;;;2.75;1.00;;;;;;;16.94;56.37;100505.56;5095390;28;19908;-79
2022/07/28 08:14:52;;;;;;;;;;;;;;;16.98;56.17;100503.69;5096229;28;20051;-80
2022/07/28 08:17:17;;;;;;;4.80;0.80;;;;;;;17.26;55.58;100499.78;5095317;28;19996;-78
2022/07/28 08:19:43;;;;;;;2.63;0.68;;;;;;;16.89;56.23;100491.34;5096600;28;20300;-80
2022/07/28 08:22:08;;;;;;;3.08;0.75;;;;;;;16.83;56.76;100499.13;5096393;28;20366;-79
2022/07/28 08:24:33;;;;;;;;;;;;;;;17.09;56.00;100501.09;5096633;28;20024;-79
2022/07/28 08:26:59;;;;;;;2.60;1.07;;;;;;;17.25;55.75;100500.94;5096824;28;19916;-81
2022/07/28 08:29:24;;;;;;;3.40;0.80;;;;;;;17.47;54.84;100502.88;5095478;28;20265;-82
2022/07/28 08:31:49;;;;;;;3.83;0.80;;;;;;;17.53;54.90;100495.84;5095391;28;20456;-81
2022/07/28 08:34:15;;;;;;;4.00;1.03;;;;;;;17.58;54.93;100505.75;5095503;28;20297;-81
2022/07/28 08:36:40;;;;;;;;;;;;;;;17.27;55.96;100498.63;5095890;28;20250;-81
2022/07/28 08:39:05;;;;;;;1.47;0.63;;;;;;;17.60;54.23;100495.16;5095305;28;20330;-82
2022/07/28 08:41:39;;;;;;;4.57;0.85;;;;;;;17.53;54.63;100495.06;5095067;28;20782;-79
2022/07/28 08:44:09;;;;;;;4.30;0.80;;;;;;;17.44;54.23;100493.38;5094955;28;20049;-80
2022/07/28 08:46:36;;;;;;;2.13;0.65;;;;;;;17.22;54.45;100490.69;5095204;28;20024;-81
2022/07/28 08:49:08;;;;;;;1.92;0.73;;;;;;;17.50;54.31;100485.59;5095365;28;20032;-81
2022/07/28 08:51:36;;;;;;;1.13;0.60;;;;;;;17.62;53.81;100485.34;5095297;28;20471;-81
2022/07/28 08:54:03;;;;;;;3.92;0.90;;;;;;;17.85;53.41;100477.03;5096257;28;20032;-81
2022/07/28 08:56:31;;;;;;;1.85;0.60;;;;;;;17.85;52.63;100482.53;5096933;28;20035;-83
2022/07/28 08:58:56;;;;;;;1.80;0.57;;;;;;;17.81;53.14;100486.44;5099920;28;20477;-82
2022/07/28 09:01:22;;;;;;;;;;;;;;;17.92;52.29;100484.56;5098417;28;20024;-82
2022/07/28 09:03:49;;;;;;;1.73;0.73;;;;;;;17.88;52.64;100481.78;5094382;28;19926;-84
2022/07/28 09:06:15;;;;;;;1.73;0.80;;;;;;;18.13;51.63;100479.31;5095798;28;20039;-84
2022/07/28 09:08:41;;;;;;;;;;;;;;;18.50;51.52;100484.03;5095564;28;20452;-82
2022/07/28 09:11:07;;;;;;;3.70;1.13;;;;;;;18.51;51.48;100474.59;5094649;28;19908;-84
2022/07/28 09:13:33;;;;;;;;;;;;;;;18.70;51.16;100476.38;5095116;28;20381;-81
2022/07/28 09:15:58;;;;;;;2.17;0.98;;;;;;;18.60;50.70;100464.03;5095200;28;19930;-82
2022/07/28 09:18:24;;;;;;;;;;;;;;;18.88;49.74;100464.31;5094035;28;20040;-85
2022/07/28 09:20:49;;;;;;;2.78;0.90;;;;;;;18.97;49.63;100463.19;5095431;28;19912;-83
2022/07/28 09:23:14;;;;;;;;;;;;;;;18.93;49.68;100463.94;5096114;28;20058;-83
2022/07/28 09:25:40;;;;;;;1.33;0.80;;;;;;;19.04;48.91;100464.03;5095497;28;19916;-85
2022/07/28 09:28:07;;;;;;;;;;;;;;;19.12;48.96;100464.84;5096215;28;20036;-83
2022/07/28 09:30:35;;;;;;;3.28;1.23;;;;;;;19.12;48.68;100456.59;5094957;28;19912;-86
2022/07/28 09:33:21;;;;;;;5.50;1.42;;;;;;;19.02;48.39;100463.63;5095791;28;20065;-80
2022/07/28 09:35:56;;;;;;;1.58;0.60;;;;;;;18.90;48.68;100459.19;5095017;28;20028;-83
2022/07/28 09:38:25;;;;;;;1.92;0.80;;;;;;;19.38;47.48;100450.84;5093812;28;20031;-88
2022/07/28 09:41:02;;;;;;;2.72;0.73;;;;;;;19.36;47.64;100447.69;5095589;28;20039;-83
2022/07/28 09:43:37;;;;;;;3.22;0.80;;;;;;;19.66;47.71;100450.22;5094109;28;20066;-83
2022/07/28 09:46:23;;;;;;;2.42;0.90;;;;;;;19.79;46.84;100453.41;5094655;28;20419;-81
2022/07/28 09:48:52;;;;;;;2.42;0.80;;;;;;;19.71;46.94;100447.09;5094045;28;20116;-82
2022/07/28 09:51:21;;;;;;;1.85;0.63;;;;;;;19.31;47.83;100434.22;5094387;28;20039;-82
2022/07/28 09:53:46;;;;;;;7.88;1.52;;;;;;;19.85;47.26;100445.56;5094055;28;20440;-84
2022/07/28 09:56:12;;;;;;;3.22;0.80;;;;;;;19.58;46.52;100442.28;5096017;28;20102;-83
2022/07/28 09:58:38;;;;;;;2.55;0.70;;;;;;;19.85;45.80;100449.13;5094030;28;20127;-79
2022/07/28 10:01:09;;;;;;;2.40;0.73;;;;;;;19.94;45.32;100449.53;5095173;28;20032;-81
2022/07/28 10:03:36;;;;;;;2.13;0.80;;;;;;;20.03;44.98;100449.19;5093557;28;20082;-81
2022/07/28 10:06:10;;;;;;;2.70;0.65;;;;;;;19.93;44.61;100450.72;5095336;28;20402;-80
2022/07/28 10:08:39;;;;;;;2.55;0.90;;;;;;;20.29;43.64;100451.59;5094426;28;20097;-82
2022/07/28 10:11:04;;;;;;;1.27;0.50;;;;;;;20.36;43.54;100451.63;5093924;28;20032;-81
2022/07/28 10:13:29;;;;;;;1.73;0.73;;;;;;;20.14;44.07;100442.47;5094142;28;20455;-83
2022/07/28 10:16:10;;;;;;;;;;;;;;;20.34;43.65;100444.91;5093453;28;20468;-79
2022/07/28 10:18:37;;;;;;;2.47;0.55;;;;;;;20.64;42.94;100434.25;5093372;28;19963;-82
2022/07/28 10:21:07;;;;;;;2.20;0.82;;;;;;;20.52;43.27;100445.75;5093310;28;20513;-79
2022/07/28 10:23:36;;;;;;;3.65;0.95;;;;;;;20.23;43.15;100433.81;5093105;28;20028;-82
2022/07/28 10:26:03;;;;;;;2.42;0.60;;;;;;;20.04;43.01;100432.19;5096312;28;20036;-83
2022/07/28 10:28:33;;;;;;;3.42;1.15;;;;;;;20.32;43.07;100425.94;5094358;28;20035;-82
2022/07/28 10:31:00;;;;;;;2.92;0.75;;;;;;;20.45;42.27;100434.66;5092384;28;20024;-81
2022/07/28 10:33:30;;;;;;;1.63;0.60;;;;;;;20.84;42.02;100428.34;5093881;28;20421;-83
2022/07/28 10:35:57;;;;;;;2.92;0.60;;;;;;;21.13;41.60;100429.09;5092904;28;20028;-82
2022/07/28 10:38:26;;;;;;;2.45;0.68;;;;;;;21.11;41.25;100421.19;5093267;28;20077;-81
2022/07/28 10:40:55;;;;;;;1.67;0.70;;;;;;;21.08;40.77;100432.25;5093422;28;20031;-81
2022/07/28 10:43:22;;;;;;;2.13;0.70;;;;;;;20.82;41.31;100420.41;5093620;28;20392;-82
2022/07/28 10:45:48;;;;;;;1.20;0.50;;;;;;;20.70;40.21;100409.78;5093994;28;20028;-80
2022/07/28 10:48:14;;;;;;;2.80;0.95;;;;;;;20.89;40.52;100414.09;5094515;28;20028;-80
2022/07/28 10:50:40;;;;;;;2.17;0.70;;;;;;;21.21;40.04;100417.59;5091828;28;20028;-82
2022/07/28 10:53:07;;;;;;;2.10;0.63;;;;;;;21.17;39.92;100414.06;5091325;28;20035;-82
2022/07/28 10:55:32;;;;;;;0.82;0.50;;;;;;;20.99;40.51;100410.50;5092439;28;20046;-83
2022/07/28 10:58:03;;;;;;;6.70;0.97;;;;;;;21.06;40.86;100415.28;5094433;28;20032;-81
2022/07/28 11:00:47;;;;;;;3.10;1.15;;;;;;;21.25;40.41;100395.47;5091598;28;20285;-82
2022/07/28 11:03:31;;;;;;;3.10;0.93;;;;;;;21.41;40.04;100395.03;5093264;28;20075;-88
2022/07/28 11:05:57;;;;;;;5.03;1.10;;;;;;;21.19;40.12;100400.59;5094542;28;20043;-88
2022/07/28 11:08:22;;;;;;;4.50;0.90;;;;;;;21.06;40.77;100401.44;5096055;28;20024;-86
2022/07/28 11:10:49;;;;;;;2.03;0.82;;;;;;;21.23;39.93;100392.28;5095063;28;20036;-84
2022/07/28 11:13:41;;;;;;;1.33;0.60;;;;;;;21.20;39.90;100393.88;5092913;28;20351;-82
2022/07/28 11:16:14;;;;;;;2.65;0.93;;;;;;;21.59;40.06;100393.75;5091828;28;20040;-81
2022/07/28 11:19:02;;;;;;;2.80;0.70;;;;;;;21.73;39.85;100398.44;5093002;28;20084;-81
2022/07/28 11:21:27;;;;;;;2.53;1.15;;;;;;;21.79;38.96;100382.19;5092407;28;20031;-79
2022/07/28 11:23:55;;;;;;;1.80;0.70;;;;;;;21.84;39.59;100390.09;5093403;28;20024;-82
2022/07/28 11:26:23;;;;;;;1.60;0.90;;;;;;;21.72;39.13;100391.31;5091178;28;20162;-81
2022/07/28 11:29:04;;;;;;;1.48;0.60;;;;;;;22.02;38.13;100381.66;5092442;28;20047;-80
2022/07/28 11:31:47;;;;;;;3.55;0.73;;;;;;;22.30;37.84;100386.22;5092550;28;20482;-82
2022/07/28 11:34:18;;;;;;;1.73;0.80;;;;;;;21.89;39.18;100382.13;5093086;28;20305;-77